Time;durP1;ratioP1;P1;durP2;ratioP2;P2;SDS_P1;SDS_P2;PMS_P1;PMS_P2;Temp;Humidity;BMP_temperature;BMP_pressure;BME280_temperature;BME280_humidity;BME280_pressure;Samples;Min_cycle;Max_cycle;Signal;HPM_P1;HPM_P2
2022/12/26 00:01:49;;;;;;;39.45;18.90;;;;;;;10.09;100.00;101749.00;4951517;28;20379;-76
2022/12/26 00:04:17;;;;;;;41.05;19.80;;;;;;;10.12;100.00;101750.41;4953703;29;20054;-76
2022/12/26 00:07:05;;;;;;;39.42;19.15;;;;;;;10.15;100.00;101748.00;4953777;29;20051;-76
2022/12/26 00:09:35;;;;;;;38.47;19.88;;;;;;;10.13;100.00;101752.06;4953447;29;20055;-76
2022/12/26 00:12:03;;;;;;;48.63;19.88;;;;;;;10.18;100.00;101754.91;4953878;28;20074;-76
2022/12/26 00:14:31;;;;;;;38.92;18.75;;;;;;;10.12;100.00;101750.41;4957377;29;20043;-76
2022/12/26 00:16:59;;;;;;;45.97;21.30;;;;;;;10.16;100.00;101755.13;4957463;28;20499;-76
2022/12/26 00:19:27;;;;;;;37.55;19.27;;;;;;;10.16;100.00;101757.06;4955884;29;20047;-76
2022/12/26 00:21:56;;;;;;;46.63;20.27;;;;;;;10.12;100.00;101761.34;4947126;29;20080;-77
2022/12/26 00:24:24;;;;;;;41.17;19.42;;;;;;;10.13;100.00;101761.13;4956982;29;20067;-76
2022/12/26 00:26:52;;;;;;;41.72;20.17;;;;;;;10.14;100.00;101764.66;4957011;29;20050;-76
2022/12/26 00:29:21;;;;;;;43.70;20.70;;;;;;;10.15;100.00;101761.69;4956801;29;20066;-76
2022/12/26 00:31:52;;;;;;;40.03;19.13;;;;;;;10.11;100.00;101756.97;4956788;29;20054;-76
2022/12/26 00:34:20;;;;;;;47.17;21.80;;;;;;;10.24;100.00;101761.25;4956801;29;20052;-76
2022/12/26 00:36:48;;;;;;;41.25;21.05;;;;;;;10.16;100.00;101763.34;4956365;29;20055;-76
2022/12/26 00:39:16;;;;;;;38.13;19.70;;;;;;;10.04;100.00;101770.78;4956959;29;20047;-76
2022/12/26 00:41:44;;;;;;;42.50;21.00;;;;;;;10.11;100.00;101760.53;4956689;29;20074;-76
2022/12/26 00:44:12;;;;;;;39.30;21.15;;;;;;;10.09;100.00;101774.44;4956642;29;20055;-76
2022/12/26 00:46:40;;;;;;;41.78;20.17;;;;;;;10.11;100.00;101759.72;4957109;29;20058;-76
2022/12/26 00:49:09;;;;;;;46.75;22.75;;;;;;;10.13;100.00;101766.59;4955549;29;20249;-76
2022/12/26 00:51:38;;;;;;;42.78;21.10;;;;;;;10.14;100.00;101776.44;4957051;29;20039;-76
2022/12/26 00:54:06;;;;;;;43.20;21.63;;;;;;;10.12;100.00;101773.13;4955747;28;20051;-76
2022/12/26 00:56:34;;;;;;;51.38;22.42;;;;;;;10.15;100.00;101766.31;4956613;29;20051;-76
2022/12/26 00:59:02;;;;;;;44.75;21.90;;;;;;;10.17;100.00;101777.88;4956803;29;20055;-76
2022/12/26 01:01:31;;;;;;;39.75;21.00;;;;;;;10.07;100.00;101775.78;4956349;29;20055;-76
2022/12/26 01:03:59;;;;;;;47.20;22.77;;;;;;;10.10;100.00;101764.34;4956772;28;20055;-76
2022/12/26 01:06:27;;;;;;;39.58;20.67;;;;;;;9.99;100.00;101774.28;4956077;29;20055;-76
2022/12/26 01:08:55;;;;;;;38.60;21.85;;;;;;;10.03;100.00;101774.63;4956486;29;20502;-76
2022/12/26 01:11:38;;;;;;;44.35;21.80;;;;;;;10.06;100.00;101782.31;4955981;29;20054;-76
2022/12/26 01:14:11;;;;;;;46.15;22.38;;;;;;;10.05;100.00;101777.91;4956257;29;20498;-76
2022/12/26 01:16:41;;;;;;;42.78;20.30;;;;;;;10.08;100.00;101767.31;4956230;29;20093;-76
2022/12/26 01:19:10;;;;;;;41.45;20.25;;;;;;;10.10;100.00;101775.28;4956245;29;20051;-76
2022/12/26 01:21:39;;;;;;;40.55;20.30;;;;;;;10.11;100.00;101766.00;4956536;29;20051;-76
2022/12/26 01:24:07;;;;;;;40.58;21.17;;;;;;;9.93;100.00;101772.53;4938835;29;20051;-76
2022/12/26 01:26:35;;;;;;;36.72;18.67;;;;;;;9.92;100.00;101763.47;4939214;29;20047;-76
2022/12/26 01:29:03;;;;;;;39.70;19.67;;;;;;;9.92;100.00;101770.88;4954884;29;20422;-76
2022/12/26 01:31:31;;;;;;;41.28;19.83;;;;;;;9.94;100.00;101761.31;4955773;29;20057;-76
2022/12/26 01:33:59;;;;;;;40.17;19.77;;;;;;;9.87;100.00;101763.38;4955426;29;20618;-76
2022/12/26 01:36:27;;;;;;;39.15;20.05;;;;;;;9.88;100.00;101756.03;4955576;29;20047;-76
2022/12/26 01:38:55;;;;;;;41.22;19.92;;;;;;;9.90;100.00;101762.06;4955112;29;20399;-76
2022/12/26 01:41:23;;;;;;;43.03;21.35;;;;;;;9.94;100.00;101760.50;4955938;29;20426;-76
2022/12/26 01:44:00;;;;;;;37.35;18.92;;;;;;;9.95;100.00;101771.22;4955668;29;20403;-76
2022/12/26 01:46:41;;;;;;;40.53;20.05;;;;;;;9.93;100.00;101765.13;4955839;29;20058;-76
2022/12/26 01:49:18;;;;;;;40.42;19.67;;;;;;;9.93;100.00;101756.13;4955466;29;20047;-76
2022/12/26 01:51:59;;;;;;;36.30;20.52;;;;;;;9.97;100.00;101754.53;4955327;29;20070;-76
2022/12/26 01:54:33;;;;;;;34.17;17.45;;;;;;;9.95;100.00;101763.00;4955014;29;20055;-76
2022/12/26 01:57:16;;;;;;;37.55;19.38;;;;;;;9.91;100.00;101766.47;4955016;29;20059;-76
2022/12/26 01:59:45;;;;;;;37.00;19.00;;;;;;;9.92;100.00;101768.13;4955038;29;20051;-76
2022/12/26 02:02:14;;;;;;;34.90;17.70;;;;;;;9.93;100.00;101767.06;4955064;29;20058;-76
2022/12/26 02:07:39;;;;;;;33.40;17.17;;;;;;;9.84;100.00;101769.38;4955446;29;20051;-76
2022/12/26 02:10:17;;;;;;;31.35;15.80;;;;;;;9.87;100.00;101766.13;4938514;29;20047;-76
2022/12/26 02:12:46;;;;;;;38.13;17.08;;;;;;;9.88;100.00;101765.03;4955180;29;20048;-76
2022/12/26 02:15:16;;;;;;;26.75;14.57;;;;;;;9.81;100.00;101751.53;4955296;29;20062;-76
2022/12/26 02:17:46;;;;;;;28.73;15.35;;;;;;;9.79;100.00;101758.34;4954510;29;20059;-76
2022/12/26 02:20:26;;;;;;;27.13;15.20;;;;;;;9.80;100.00;101749.06;4955384;29;20062;-76
2022/12/26 02:23:39;;;;;;;26.67;15.40;;;;;;;9.70;100.00;101755.16;4955040;29;20140;-76
2022/12/26 02:26:25;;;;;;;28.15;14.10;;;;;;;9.75;100.00;101743.50;4955142;29;20054;-76
2022/12/26 02:29:20;;;;;;;27.92;13.30;;;;;;;9.73;100.00;101751.94;4955188;29;20841;-76
2022/12/26 02:32:07;;;;;;;19.10;11.80;;;;;;;9.65;100.00;101747.72;4955167;29;20062;-76
2022/12/26 02:34:56;;;;;;;20.60;10.93;;;;;;;9.72;100.00;101739.34;4954631;28;20466;-76
2022/12/26 02:37:52;;;;;;;19.13;11.98;;;;;;;9.71;100.00;101740.41;4954509;29;20055;-76
2022/12/26 02:40:26;;;;;;;20.58;11.23;;;;;;;9.75;100.00;101738.03;4954643;29;20143;-76
2022/12/26 02:43:05;;;;;;;18.45;11.68;;;;;;;9.74;100.00;101747.31;4954801;29;20483;-76
2022/12/26 02:48:50;;;;;;;17.00;10.48;;;;;;;9.70;99.67;101732.44;4954530;29;20047;-76
2022/12/26 03:15:07;;;;;;;16.73;10.77;;;;;;;9.59;98.93;101724.09;4954381;29;20509;-76
2022/12/26 03:17:49;;;;;;;19.08;10.68;;;;;;;9.54;99.90;101735.75;4951820;29;20055;-76
2022/12/26 03:20:25;;;;;;;19.38;10.80;;;;;;;9.55;100.00;101728.38;4953791;29;20513;-76
2022/12/26 03:23:02;;;;;;;15.93;10.48;;;;;;;9.55;100.00;101725.66;4937048;29;20054;-76
2022/12/26 03:28:32;;;;;;;22.05;11.02;;;;;;;9.62;99.37;101714.53;4953774;29;20051;-76
2022/12/26 03:31:04;;;;;;;16.98;10.65;;;;;;;9.60;100.00;101712.06;4954502;28;20062;-76
2022/12/26 03:36:45;;;;;;;19.10;11.15;;;;;;;9.59;99.35;101715.06;4954248;29;20054;-76
2022/12/26 04:20:02;;;;;;;19.40;10.85;;;;;;;9.60;100.00;101733.94;4957445;29;20397;-76
2022/12/26 04:46:24;;;;;;;16.02;10.60;;;;;;;9.36;100.00;101739.50;4956887;29;20406;-76
2022/12/26 04:51:41;;;;;;;18.17;10.68;;;;;;;9.46;100.00;101748.97;4955958;29;20062;-76
2022/12/26 04:54:09;;;;;;;23.55;12.55;;;;;;;9.41;100.00;101738.78;4956967;29;20051;-76
2022/12/26 04:56:37;;;;;;;24.75;13.13;;;;;;;9.36;100.00;101750.44;4956288;29;20043;-76
2022/12/26 04:59:05;;;;;;;28.90;14.93;;;;;;;9.48;100.00;101744.09;4955693;28;20051;-76
2022/12/26 05:10:03;;;;;;;45.17;20.70;;;;;;;9.66;100.00;101749.38;4956084;29;20047;-76
2022/12/26 05:12:32;;;;;;;46.15;23.23;;;;;;;9.41;100.00;101766.09;4956737;28;20058;-76
2022/12/26 05:14:59;;;;;;;51.17;22.85;;;;;;;9.40;100.00;101762.50;4955686;29;20047;-76
2022/12/26 05:28:41;;;;;;;52.72;25.83;;;;;;;9.22;100.00;101754.50;4937083;29;20057;-76
2022/12/26 05:31:15;;;;;;;50.38;24.48;;;;;;;9.17;100.00;101751.66;4949713;29;20403;-76
2022/12/26 05:36:44;;;;;;;58.85;24.75;;;;;;;9.36;100.00;101753.16;4956054;29;20051;-76
2022/12/26 05:39:12;;;;;;;57.45;24.85;;;;;;;9.36;100.00;101755.06;4956043;29;20483;-76
2022/12/26 05:41:40;;;;;;;62.70;26.30;;;;;;;9.10;100.00;101763.56;4956268;28;20070;-76
2022/12/26 05:44:09;;;;;;;61.95;27.70;;;;;;;9.47;100.00;101765.13;4955947;29;20058;-76
2022/12/26 05:46:37;;;;;;;64.70;28.08;;;;;;;9.39;100.00;101755.41;4956310;28;20056;-76
2022/12/26 05:49:06;;;;;;;62.33;28.80;;;;;;;9.53;100.00;101757.84;4956235;28;20065;-76
2022/12/26 05:51:34;;;;;;;63.97;27.20;;;;;;;9.36;100.00;101766.81;4955914;29;20051;-76
2022/12/26 05:54:03;;;;;;;67.25;27.15;;;;;;;9.30;100.00;101762.34;4970736;28;20058;-76
2022/12/26 05:56:31;;;;;;;69.07;26.27;;;;;;;9.27;100.00;101749.16;4955652;28;20490;-76
2022/12/26 05:59:00;;;;;;;64.95;30.17;;;;;;;9.47;100.00;101756.06;4955206;29;20056;-76
2022/12/26 06:01:28;;;;;;;83.50;32.10;;;;;;;9.39;100.00;101754.59;4955176;29;20055;-76
2022/12/26 06:03:58;;;;;;;69.90;28.25;;;;;;;9.41;100.00;101756.00;4954869;29;20486;-76
2022/12/26 06:06:27;;;;;;;76.85;30.42;;;;;;;9.57;100.00;101756.28;4954873;29;20407;-76
2022/12/26 06:08:56;;;;;;;74.72;32.17;;;;;;;9.31;100.00;101761.25;4955142;29;20701;-75
2022/12/26 06:11:25;;;;;;;71.93;30.52;;;;;;;9.63;100.00;101755.31;4953527;29;20058;-76
2022/12/26 06:13:54;;;;;;;68.43;29.48;;;;;;;9.62;100.00;101753.66;4957021;28;20498;-76
2022/12/26 06:16:23;;;;;;;71.53;31.02;;;;;;;9.53;100.00;101755.09;4950186;29;20051;-76
2022/12/26 06:18:51;;;;;;;70.20;32.67;;;;;;;9.62;100.00;101759.13;4949581;29;20055;-76
2022/12/26 06:21:20;;;;;;;72.80;29.25;;;;;;;9.60;100.00;101763.16;4948989;28;20046;-76
2022/12/26 06:23:49;;;;;;;68.88;29.33;;;;;;;9.73;100.00;101754.66;4948976;29;20061;-76
2022/12/26 06:26:16;;;;;;;73.95;31.80;;;;;;;9.78;100.00;101762.97;4948514;29;20046;-76
2022/12/26 06:28:46;;;;;;;67.20;27.80;;;;;;;9.56;100.00;101757.38;4948270;29;20043;-76
2022/12/26 06:31:19;;;;;;;75.00;29.80;;;;;;;9.65;100.00;101749.59;4948514;28;20117;-76
2022/12/26 06:33:50;;;;;;;68.03;29.08;;;;;;;9.47;100.00;101773.31;4948275;29;20054;-76
2022/12/26 06:36:20;;;;;;;69.03;27.15;;;;;;;9.52;100.00;101764.38;4948955;28;20059;-76
2022/12/26 06:38:48;;;;;;;72.57;29.08;;;;;;;9.47;100.00;101769.75;4946913;29;20063;-76
2022/12/26 06:41:18;;;;;;;72.63;30.02;;;;;;;9.50;100.00;101761.06;4948202;29;20043;-76
2022/12/26 06:43:47;;;;;;;77.32;30.73;;;;;;;9.44;100.00;101770.25;4948085;29;20403;-76
2022/12/26 06:46:18;;;;;;;77.15;31.48;;;;;;;9.40;100.00;101772.63;4946283;29;20051;-76
2022/12/26 06:48:46;;;;;;;85.40;31.17;;;;;;;9.57;100.00;101771.88;4947799;29;20047;-76
2022/12/26 06:51:18;;;;;;;73.45;30.80;;;;;;;9.45;100.00;101767.28;4948128;29;20047;-76
2022/12/26 06:53:51;;;;;;;81.15;30.95;;;;;;;9.47;100.00;101765.13;4948111;29;20086;-76
2022/12/26 06:56:21;;;;;;;82.38;30.58;;;;;;;9.50;100.00;101766.53;4948451;29;20051;-76
2022/12/26 06:58:57;;;;;;;83.93;30.52;;;;;;;9.25;100.00;101770.41;4947848;29;20051;-76
2022/12/26 07:01:28;;;;;;;70.95;29.02;;;;;;;9.26;100.00;101767.44;4950466;29;20051;-76
2022/12/26 07:03:56;;;;;;;77.53;30.55;;;;;;;9.30;100.00;101766.94;4952854;29;20062;-76
2022/12/26 07:06:35;;;;;;;82.63;31.85;;;;;;;9.39;100.00;101763.59;4953408;29;20059;-76
2022/12/26 07:09:09;;;;;;;80.00;30.27;;;;;;;9.39;100.00;101769.06;4949244;29;20054;-76
2022/12/26 07:11:39;;;;;;;73.70;31.02;;;;;;;9.19;100.00;101763.19;4948454;28;20055;-76
2022/12/26 07:14:07;;;;;;;69.25;30.75;;;;;;;9.31;100.00;101766.72;4947015;29;20503;-76
2022/12/26 07:16:44;;;;;;;72.18;31.45;;;;;;;9.68;100.00;101773.72;4947848;29;20051;-76
2022/12/26 07:19:13;;;;;;;76.10;30.67;;;;;;;9.45;100.00;101785.56;4948194;28;20055;-76
2022/12/26 07:21:42;;;;;;;70.22;29.35;;;;;;;9.41;100.00;101780.59;4947852;28;20070;-76
2022/12/26 07:24:18;;;;;;;83.47;31.65;;;;;;;9.55;100.00;101775.66;4947946;29;20421;-76
2022/12/26 07:26:46;;;;;;;84.05;33.10;;;;;;;9.76;100.00;101784.25;4947521;29;20438;-76
2022/12/26 07:29:15;;;;;;;87.00;31.20;;;;;;;9.76;100.00;101786.16;4948004;29;20425;-76
2022/12/26 07:31:43;;;;;;;80.10;32.55;;;;;;;9.52;100.00;101797.16;4947133;29;20054;-76
2022/12/26 07:34:11;;;;;;;90.55;31.20;;;;;;;9.59;100.00;101806.09;4947871;29;20517;-77
2022/12/26 07:36:39;;;;;;;83.05;32.58;;;;;;;9.57;100.00;101808.22;4945884;29;20063;-76
2022/12/26 07:39:08;;;;;;;77.03;32.40;;;;;;;9.45;100.00;101801.94;4947802;28;20058;-76
2022/12/26 07:44:22;;;;;;;82.00;31.90;;;;;;;9.52;100.00;101819.03;4947534;29;20055;-75
2022/12/26 07:46:50;;;;;;;74.45;31.90;;;;;;;9.70;100.00;101820.78;4947180;29;20055;-74
2022/12/26 07:49:18;;;;;;;89.35;34.53;;;;;;;9.89;100.00;101823.31;4948162;28;20058;-75
2022/12/26 07:51:48;;;;;;;85.80;31.95;;;;;;;9.87;100.00;101834.47;4950248;29;20046;-75
2022/12/26 07:54:17;;;;;;;83.18;30.48;;;;;;;9.84;100.00;101836.88;4952747;29;20066;-75
2022/12/26 07:56:45;;;;;;;68.70;29.02;;;;;;;9.81;100.00;101830.00;4954168;29;20047;-75
2022/12/26 07:59:16;;;;;;;75.03;30.27;;;;;;;9.75;100.00;101822.75;4952519;29;20047;-75
2022/12/26 08:01:44;;;;;;;78.85;30.80;;;;;;;9.95;100.00;101827.78;4953535;29;20410;-75
2022/12/26 08:04:13;;;;;;;81.85;31.10;;;;;;;10.03;100.00;101816.44;4954076;28;20059;-75
2022/12/26 08:06:41;;;;;;;73.25;32.58;;;;;;;9.98;100.00;101821.84;4953275;29;20055;-75
2022/12/26 08:09:14;;;;;;;78.35;32.45;;;;;;;9.85;100.00;101822.13;4953757;29;20426;-75
2022/12/26 08:11:43;;;;;;;73.18;28.98;;;;;;;9.85;100.00;101820.22;4953955;29;20076;-75
2022/12/26 08:14:12;;;;;;;75.60;30.65;;;;;;;9.74;100.00;101819.22;4953764;29;20059;-75
2022/12/26 08:16:40;;;;;;;74.57;30.98;;;;;;;9.70;100.00;101819.94;4952265;29;20494;-76
2022/12/26 08:19:09;;;;;;;62.55;29.95;;;;;;;9.76;100.00;101827.16;4953644;28;20055;-75
2022/12/26 08:21:38;;;;;;;72.63;30.17;;;;;;;9.69;100.00;101819.13;4953426;29;20062;-76
2022/12/26 08:24:06;;;;;;;67.15;30.02;;;;;;;9.90;100.00;101816.75;4953124;28;20070;-75
2022/12/26 08:26:34;;;;;;;69.63;29.50;;;;;;;9.68;100.00;101829.22;4953666;29;20043;-76
2022/12/26 08:29:02;;;;;;;67.60;29.40;;;;;;;9.63;100.00;101823.63;4952653;29;20046;-77
2022/12/26 08:31:29;;;;;;;68.53;29.65;;;;;;;9.53;100.00;101809.75;4953527;29;20066;-75
2022/12/26 08:33:57;;;;;;;64.82;28.00;;;;;;;9.57;100.00;101815.59;4954557;28;20394;-75
2022/12/26 08:36:25;;;;;;;67.55;32.20;;;;;;;9.47;100.00;101824.38;4955613;29;20063;-75
2022/12/26 08:38:53;;;;;;;67.68;30.38;;;;;;;9.65;100.00;101834.34;4955954;29;20051;-76
2022/12/26 08:41:21;;;;;;;72.88;32.75;;;;;;;9.61;100.00;101824.94;4956649;29;20059;-75
2022/12/26 08:43:51;;;;;;;71.35;31.45;;;;;;;9.56;100.00;101820.22;4956690;29;20051;-75
2022/12/26 08:46:38;;;;;;;61.38;28.92;;;;;;;9.66;100.00;101819.59;4956667;29;20055;-75
2022/12/26 08:49:06;;;;;;;61.30;29.25;;;;;;;9.84;100.00;101825.94;4956335;29;20054;-75
2022/12/26 08:51:35;;;;;;;65.78;29.98;;;;;;;9.80;100.00;101831.06;4956406;28;20059;-75
2022/12/26 08:54:03;;;;;;;64.03;29.55;;;;;;;9.84;100.00;101825.94;4955524;29;20050;-75
2022/12/26 08:56:31;;;;;;;63.17;29.17;;;;;;;9.76;100.00;101821.69;4956501;29;20051;-75
2022/12/26 08:58:59;;;;;;;65.97;29.38;;;;;;;9.82;100.00;101823.44;4956033;29;20557;-75
2022/12/26 09:01:29;;;;;;;55.00;28.48;;;;;;;10.03;100.00;101823.84;4956250;29;20059;-74
2022/12/26 09:04:01;;;;;;;63.83;29.80;;;;;;;9.93;100.00;101830.75;4939094;29;20051;-74
2022/12/26 09:06:34;;;;;;;57.55;27.88;;;;;;;9.78;100.00;101827.75;4955825;29;20521;-74
2022/12/26 09:09:04;;;;;;;60.95;27.35;;;;;;;10.18;100.00;101837.78;4938677;29;20402;-74
2022/12/26 09:11:33;;;;;;;56.65;30.38;;;;;;;10.28;100.00;101837.16;4956256;29;20055;-75
2022/12/26 09:14:05;;;;;;;58.10;27.38;;;;;;;10.10;100.00;101829.97;4955138;29;20399;-75
2022/12/26 09:16:41;;;;;;;53.20;25.92;;;;;;;9.95;100.00;101827.78;4953480;29;20055;-75
2022/12/26 09:19:17;;;;;;;56.72;28.15;;;;;;;10.03;100.00;101835.59;4954052;29;20494;-74
2022/12/26 09:21:47;;;;;;;61.22;29.02;;;;;;;10.47;100.00;101845.16;4970995;28;20055;-74
2022/12/26 09:24:16;;;;;;;74.63;31.05;;;;;;;10.37;100.00;101843.03;4955967;28;20050;-74
2022/12/26 09:26:45;;;;;;;63.38;30.52;;;;;;;10.46;100.00;101846.22;4955102;29;20074;-74
2022/12/26 09:29:13;;;;;;;61.17;27.20;;;;;;;10.16;100.00;101848.16;4953619;28;20062;-74
2022/12/26 09:31:41;;;;;;;64.68;28.33;;;;;;;9.87;100.00;101850.88;4970309;28;20074;-74
2022/12/26 09:34:09;;;;;;;60.83;28.65;;;;;;;10.13;100.00;101856.84;4955260;29;20048;-74
2022/12/26 09:36:37;;;;;;;60.55;28.10;;;;;;;10.28;100.00;101864.50;4955378;29;20390;-74
2022/12/26 09:39:06;;;;;;;68.97;30.00;;;;;;;10.48;100.00;101853.09;4955285;29;20039;-74
2022/12/26 09:42:09;;;;;;;68.80;30.65;;;;;;;10.48;100.00;101847.63;4954521;29;20826;-74
2022/12/26 09:44:55;;;;;;;66.65;30.52;;;;;;;10.51;100.00;101857.25;4953361;28;20081;-74
2022/12/26 09:47:34;;;;;;;69.78;31.75;;;;;;;10.61;100.00;101851.94;4952146;29;20047;-74
2022/12/26 09:50:37;;;;;;;66.40;30.88;;;;;;;10.53;100.00;101846.91;4955122;28;20051;-74
2022/12/26 09:53:17;;;;;;;69.40;32.25;;;;;;;10.53;100.00;101843.31;4966011;28;20074;-74
2022/12/26 09:56:04;;;;;;;73.45;33.22;;;;;;;10.55;100.00;101846.66;4966194;28;20050;-75
2022/12/26 09:58:37;;;;;;;70.03;32.63;;;;;;;10.41;100.00;101844.19;4956592;28;20047;-74
2022/12/26 10:01:20;;;;;;;62.40;30.98;;;;;;;10.62;100.00;101837.16;4954734;28;20062;-72
2022/12/26 10:03:52;;;;;;;63.38;32.25;;;;;;;10.87;100.00;101838.66;4954079;29;20085;-74
2022/12/26 10:06:23;;;;;;;51.88;26.75;;;;;;;10.66;100.00;101836.69;4955203;29;20058;-74
2022/12/26 10:09:09;;;;;;;55.97;28.23;;;;;;;10.71;100.00;101837.59;4953496;28;20054;-74
2022/12/26 10:11:59;;;;;;;51.72;26.42;;;;;;;10.30;100.00;101845.09;4954012;29;20398;-74
2022/12/26 10:15:05;;;;;;;42.83;24.23;;;;;;;10.46;100.00;101841.56;4937034;29;20063;-74
2022/12/26 10:17:52;;;;;;;50.15;26.38;;;;;;;10.96;100.00;101830.84;4954423;29;20051;-74
2022/12/26 10:20:31;;;;;;;47.10;23.92;;;;;;;10.83;100.00;101828.44;4945213;28;20063;-74
2022/12/26 10:23:11;;;;;;;51.60;26.02;;;;;;;10.92;100.00;101831.59;4937200;29;20062;-74
2022/12/26 10:25:52;;;;;;;48.10;24.60;;;;;;;11.02;100.00;101829.84;4953664;28;20058;-75
2022/12/26 10:28:45;;;;;;;50.50;24.50;;;;;;;10.87;100.00;101819.47;4954258;29;20050;-74
2022/12/26 10:31:27;;;;;;;52.37;24.47;;;;;;;11.08;100.00;101816.19;4953515;29;20050;-76
2022/12/26 10:34:15;;;;;;;56.05;26.00;;;;;;;11.08;100.00;101816.19;4952432;29;20051;-77
2022/12/26 10:36:50;;;;;;;60.35;25.50;;;;;;;11.29;100.00;101822.78;4952875;29;20390;-78
2022/12/26 10:39:44;;;;;;;;;;;;;;;11.11;100.00;101821.19;4951766;29;20176;-78
2022/12/26 10:42:16;;;;;;;;;;;;;;;11.59;100.00;101829.72;4934303;29;20745;-80
2022/12/26 10:44:43;;;;;;;49.50;24.88;;;;;;;11.60;100.00;101830.56;4948419;29;19985;-79
2022/12/26 10:47:14;;;;;;;56.63;26.30;;;;;;;11.62;100.00;101825.66;4953520;29;20051;-79
2022/12/26 10:49:45;;;;;;;60.35;27.10;;;;;;;11.66;100.00;101832.28;4952861;29;20046;-78
2022/12/26 10:52:14;;;;;;;53.03;25.00;;;;;;;11.18;100.00;101824.56;4953835;29;20058;-78
2022/12/26 10:54:46;;;;;;;54.92;24.90;;;;;;;11.52;100.00;101815.38;4952753;29;20513;-80
2022/12/26 10:57:14;;;;;;;58.38;27.90;;;;;;;11.54;100.00;101814.06;4953582;28;20376;-79
2022/12/26 10:59:48;;;;;;;57.40;27.15;;;;;;;11.48;100.00;101817.00;4953785;29;20521;-77
2022/12/26 11:02:29;;;;;;;;;;;;;;;11.54;100.00;101814.06;4940857;28;20051;-76
2022/12/26 11:05:04;;;;;;;60.00;26.38;;;;;;;11.42;100.00;101805.13;4932882;29;21280;-78
2022/12/26 11:08:06;;;;;;;63.47;28.33;;;;;;;11.59;100.00;101804.25;4935127;29;20039;-78
2022/12/26 11:10:36;;;;;;;61.75;28.25;;;;;;;11.50;100.00;101798.38;4939755;29;20048;-80
2022/12/26 11:13:16;;;;;;;62.78;27.55;;;;;;;11.38;100.00;101798.50;4934257;29;20075;-81
2022/12/26 11:15:51;;;;;;;58.05;28.30;;;;;;;11.54;100.00;101802.28;4933094;29;20059;-81
2022/12/26 11:18:21;;;;;;;;;;;;;;;11.29;100.00;101796.22;4942844;29;20058;-81
2022/12/26 11:20:49;;;;;;;64.47;28.25;;;;;;;11.55;100.00;101793.78;4953675;29;19926;-81
2022/12/26 11:23:30;;;;;;;64.53;30.35;;;;;;;11.78;100.00;101796.50;4954481;29;20058;-80
2022/12/26 11:26:00;;;;;;;63.50;27.23;;;;;;;11.94;100.00;101802.97;4968290;28;20047;-81
2022/12/26 11:28:34;;;;;;;54.70;26.58;;;;;;;11.55;100.00;101803.94;4957014;29;20055;-80
2022/12/26 11:31:04;;;;;;;;;;;;;;;11.71;100.00;101802.19;4966605;29;20043;-80
2022/12/26 11:33:42;;;;;;;57.05;25.13;;;;;;;11.74;100.00;101793.44;4968580;28;19922;-80
2022/12/26 11:36:18;;;;;;;64.28;27.02;;;;;;;11.48;100.00;101789.59;4956933;29;20482;-81
2022/12/26 11:38:46;;;;;;;52.67;26.60;;;;;;;11.76;100.00;101779.47;4952835;29;20375;-79
2022/12/26 11:41:30;;;;;;;56.83;25.92;;;;;;;11.79;100.00;101787.19;4954154;29;20062;-81
2022/12/26 11:44:04;;;;;;;61.70;27.38;;;;;;;11.63;100.00;101780.72;4934640;29;20059;-81
2022/12/26 11:46:55;;;;;;;54.53;26.10;;;;;;;11.60;100.00;101775.72;4943848;29;20043;-81
2022/12/26 11:49:28;;;;;;;61.53;28.00;;;;;;;11.90;100.00;101777.13;4953372;29;20499;-82
2022/12/26 11:51:57;;;;;;;57.85;28.05;;;;;;;11.94;100.00;101784.56;4953723;29;20074;-82
2022/12/26 11:54:32;;;;;;;65.45;28.67;;;;;;;11.90;100.00;101780.72;4953831;29;20070;-82
2022/12/26 11:57:15;;;;;;;57.33;25.58;;;;;;;11.90;100.00;101779.88;4953377;29;20082;-81
2022/12/26 11:59:44;;;;;;;62.65;28.42;;;;;;;11.72;100.00;101776.41;4953256;29;20047;-81
2022/12/26 12:02:24;;;;;;;54.03;26.40;;;;;;;11.69;100.00;101771.47;4953594;29;20062;-81
2022/12/26 12:04:56;;;;;;;62.03;27.55;;;;;;;11.60;100.00;101762.03;4964391;28;20047;-81
2022/12/26 12:07:33;;;;;;;57.63;26.58;;;;;;;11.22;100.00;101759.13;4957099;28;20051;-81
2022/12/26 12:10:28;;;;;;;62.85;27.92;;;;;;;11.45;100.00;101769.00;4943484;28;20473;-79
2022/12/26 12:13:11;;;;;;;;;;;;;;;11.63;100.00;101754.09;4942818;29;20051;-80
2022/12/26 12:15:52;;;;;;;62.60;27.55;;;;;;;11.58;100.00;101747.75;4963417;28;20689;-78
2022/12/26 12:18:46;;;;;;;61.65;27.52;;;;;;;11.58;100.00;101743.09;4953208;29;20058;-81
2022/12/26 12:21:47;;;;;;;60.85;28.13;;;;;;;11.45;100.00;101749.81;4937776;28;20063;-79
2022/12/26 12:24:42;;;;;;;62.00;27.15;;;;;;;11.25;100.00;101745.75;4956099;28;20047;-80
2022/12/26 12:27:41;;;;;;;55.38;26.85;;;;;;;11.40;100.00;101758.78;4956473;29;20051;-82
2022/12/26 12:31:10;;;;;;;63.70;28.15;;;;;;;11.46;100.00;101756.13;4949179;28;20407;-83
2022/12/26 12:34:21;;;;;;;59.88;26.83;;;;;;;11.39;100.00;101745.38;4936543;28;20408;-81
2022/12/26 12:36:49;;;;;;;66.35;28.13;;;;;;;11.38;100.00;101751.91;4935317;29;20055;-79
2022/12/26 12:39:59;;;;;;;64.97;28.02;;;;;;;11.30;100.00;101747.72;4942174;28;20047;-80
2022/12/26 12:42:42;;;;;;;58.10;26.85;;;;;;;11.51;100.00;101737.81;4947730;28;20047;-82
2022/12/26 12:45:31;;;;;;;61.22;27.52;;;;;;;11.35;100.00;101749.69;4940212;29;20047;-81
2022/12/26 12:48:25;;;;;;;62.28;28.75;;;;;;;11.48;100.00;101738.31;4946723;28;20047;-80
2022/12/26 12:51:01;;;;;;;67.68;28.67;;;;;;;11.59;100.00;101738.44;4952020;29;20043;-81
2022/12/26 12:54:07;;;;;;;56.42;26.35;;;;;;;11.52;100.00;101735.91;4952469;28;20039;-81
2022/12/26 12:56:47;;;;;;;68.80;27.98;;;;;;;11.35;100.00;101733.25;4940281;28;20047;-78
2022/12/26 12:59:27;;;;;;;62.80;28.27;;;;;;;11.41;100.00;101738.53;4948191;28;20496;-80
2022/12/26 13:02:00;;;;;;;57.08;27.80;;;;;;;11.39;100.00;101750.84;4947958;28;20043;-80
2022/12/26 13:04:42;;;;;;;58.95;26.30;;;;;;;11.46;100.00;101740.50;4942401;29;20402;-80
2022/12/26 13:07:13;;;;;;;;;;;;;;;11.39;100.00;101732.47;4953413;29;20043;-80
2022/12/26 13:09:46;;;;;;;59.33;27.75;;;;;;;11.56;100.00;101732.41;4951201;28;19926;-77
2022/12/26 13:12:23;;;;;;;72.18;30.70;;;;;;;11.45;100.00;101733.38;4953467;29;20263;-79
2022/12/26 13:14:55;;;;;;;60.17;26.40;;;;;;;11.49;100.00;101729.00;4957185;28;20464;-82
2022/12/26 13:17:26;;;;;;;57.15;27.50;;;;;;;11.55;100.00;101733.47;4952909;28;20043;-79
2022/12/26 13:20:11;;;;;;;63.67;27.70;;;;;;;11.29;100.00;101729.59;4952613;28;20429;-80
2022/12/26 13:26:50;;;;;;;60.35;28.48;;;;;;;11.50;100.00;101730.69;4936794;29;20058;-80
2022/12/26 13:29:28;;;;;;;64.20;29.17;;;;;;;11.64;100.00;101730.28;4925780;29;20500;-79
2022/12/26 13:31:58;;;;;;;60.30;26.00;;;;;;;11.57;100.00;101735.94;4953513;29;20044;-79
2022/12/26 13:34:27;;;;;;;59.65;28.02;;;;;;;11.49;100.00;101736.44;4953821;29;20050;-79
2022/12/26 13:36:57;;;;;;;54.85;26.15;;;;;;;11.39;100.00;101740.69;4951549;29;20042;-79
2022/12/26 13:39:32;;;;;;;62.28;27.50;;;;;;;11.58;100.00;101731.31;4953698;28;20051;-81
2022/12/26 13:45:34;;;;;;;67.38;27.48;;;;;;;11.69;100.00;101722.09;4950834;29;20047;-79
2022/12/26 13:48:15;;;;;;;61.13;26.63;;;;;;;11.62;100.00;101718.72;4953324;29;20039;-79
2022/12/26 13:51:01;;;;;;;58.13;27.27;;;;;;;11.66;100.00;101726.19;4954252;28;20047;-80
2022/12/26 13:53:33;;;;;;;71.25;29.00;;;;;;;11.63;100.00;101723.13;4954917;28;20047;-80
2022/12/26 13:56:22;;;;;;;64.00;28.60;;;;;;;11.69;100.00;101719.34;4939167;28;20039;-80